sensor_id;sensor_type;location;lat;lon;timestamp;P1;durP1;ratioP1;P2;durP2;ratioP2
56041;SDS011;48756;41.374;2.066;2023-02-01T00:00:30;6.47;;;4.60;;
56041;SDS011;48756;41.374;2.066;2023-02-01T00:02:55;6.68;;;3.90;;
56041;SDS011;48756;41.374;2.066;2023-02-01T00:05:21;5.47;;;3.90;;
56041;SDS011;48756;41.374;2.066;2023-02-01T00:07:47;4.57;;;3.93;;
56041;SDS011;48756;41.374;2.066;2023-02-01T00:10:14;6.97;;;4.43;;
56041;SDS011;48756;41.374;2.066;2023-02-01T00:12:39;7.77;;;4.03;;
56041;SDS011;48756;41.374;2.066;2023-02-01T00:15:05;8.17;;;4.50;;
56041;SDS011;48756;41.374;2.066;2023-02-01T00:17:31;6.18;;;3.83;;
56041;SDS011;48756;41.374;2.066;2023-02-01T00:19:56;10.73;;;4.67;;
56041;SDS011;48756;41.374;2.066;2023-02-01T00:22:22;6.87;;;4.67;;
56041;SDS011;48756;41.374;2.066;2023-02-01T00:24:47;4.77;;;2.67;;
56041;SDS011;48756;41.374;2.066;2023-02-01T00:27:15;5.60;;;3.45;;
56041;SDS011;48756;41.374;2.066;2023-02-01T00:29:45;5.22;;;3.50;;
56041;SDS011;48756;41.374;2.066;2023-02-01T00:32:11;4.25;;;3.35;;
56041;SDS011;48756;41.374;2.066;2023-02-01T00:34:37;6.28;;;3.97;;
56041;SDS011;48756;41.374;2.066;2023-02-01T00:37:02;5.27;;;3.63;;
56041;SDS011;48756;41.374;2.066;2023-02-01T00:39:28;7.00;;;4.90;;
56041;SDS011;48756;41.374;2.066;2023-02-01T00:41:53;7.70;;;4.87;;
56041;SDS011;48756;41.374;2.066;2023-02-01T00:44:19;6.90;;;5.87;;
56041;SDS011;48756;41.374;2.066;2023-02-01T00:46:47;5.63;;;4.33;;
56041;SDS011;48756;41.374;2.066;2023-02-01T00:49:13;5.85;;;4.38;;
56041;SDS011;48756;41.374;2.066;2023-02-01T00:51:38;4.70;;;3.67;;
56041;SDS011;48756;41.374;2.066;2023-02-01T00:54:03;5.40;;;3.87;;
56041;SDS011;48756;41.374;2.066;2023-02-01T00:56:29;7.23;;;5.07;;
56041;SDS011;48756;41.374;2.066;2023-02-01T00:58:55;6.75;;;4.47;;
56041;SDS011;48756;41.374;2.066;2023-02-01T01:01:22;5.03;;;4.53;;
56041;SDS011;48756;41.374;2.066;2023-02-01T01:04:10;6.97;;;3.60;;
56041;SDS011;48756;41.374;2.066;2023-02-01T01:06:35;13.57;;;5.30;;
56041;SDS011;48756;41.374;2.066;2023-02-01T01:09:02;7.03;;;4.45;;
56041;SDS011;48756;41.374;2.066;2023-02-01T01:11:31;5.30;;;3.22;;
56041;SDS011;48756;41.374;2.066;2023-02-01T01:13:57;7.53;;;3.08;;
56041;SDS011;48756;41.374;2.066;2023-02-01T01:16:25;5.80;;;5.13;;
56041;SDS011;48756;41.374;2.066;2023-02-01T01:18:52;4.53;;;3.72;;
56041;SDS011;48756;41.374;2.066;2023-02-01T01:21:19;7.00;;;4.03;;
56041;SDS011;48756;41.374;2.066;2023-02-01T01:23:45;6.10;;;4.47;;
56041;SDS011;48756;41.374;2.066;2023-02-01T01:26:18;4.95;;;4.45;;
56041;SDS011;48756;41.374;2.066;2023-02-01T01:28:46;6.95;;;3.60;;
56041;SDS011;48756;41.374;2.066;2023-02-01T01:31:13;5.78;;;4.07;;
56041;SDS011;48756;41.374;2.066;2023-02-01T01:33:40;6.65;;;4.75;;
56041;SDS011;48756;41.374;2.066;2023-02-01T01:36:07;4.40;;;3.92;;
56041;SDS011;48756;41.374;2.066;2023-02-01T01:38:39;6.00;;;4.30;;
56041;SDS011;48756;41.374;2.066;2023-02-01T01:41:05;5.00;;;3.35;;
56041;SDS011;48756;41.374;2.066;2023-02-01T01:43:51;5.30;;;4.70;;
56041;SDS011;48756;41.374;2.066;2023-02-01T01:46:18;8.63;;;3.72;;
56041;SDS011;48756;41.374;2.066;2023-02-01T01:48:45;4.68;;;3.25;;
56041;SDS011;48756;41.374;2.066;2023-02-01T01:51:12;7.00;;;4.85;;
56041;SDS011;48756;41.374;2.066;2023-02-01T01:53:46;7.88;;;4.47;;
56041;SDS011;48756;41.374;2.066;2023-02-01T01:56:15;7.25;;;5.28;;
56041;SDS011;48756;41.374;2.066;2023-02-01T01:58:41;12.60;;;6.40;;
56041;SDS011;48756;41.374;2.066;2023-02-01T02:01:07;7.80;;;3.58;;
56041;SDS011;48756;41.374;2.066;2023-02-01T02:03:34;5.83;;;3.87;;
56041;SDS011;48756;41.374;2.066;2023-02-01T02:06:05;10.52;;;6.47;;
56041;SDS011;48756;41.374;2.066;2023-02-01T02:08:41;7.15;;;4.50;;
56041;SDS011;48756;41.374;2.066;2023-02-01T02:11:06;9.00;;;6.00;;
56041;SDS011;48756;41.374;2.066;2023-02-01T02:13:36;10.23;;;4.80;;
56041;SDS011;48756;41.374;2.066;2023-02-01T02:36:15;5.95;;;4.35;;
56041;SDS011;48756;41.374;2.066;2023-02-01T02:38:50;5.80;;;3.78;;
56041;SDS011;48756;41.374;2.066;2023-02-01T02:41:34;8.57;;;5.93;;
56041;SDS011;48756;41.374;2.066;2023-02-01T02:44:44;9.50;;;3.88;;
56041;SDS011;48756;41.374;2.066;2023-02-01T02:47:46;7.82;;;4.28;;
56041;SDS011;48756;41.374;2.066;2023-02-01T02:50:23;8.93;;;5.55;;
56041;SDS011;48756;41.374;2.066;2023-02-01T02:53:32;6.85;;;4.85;;
56041;SDS011;48756;41.374;2.066;2023-02-01T02:56:22;7.35;;;4.70;;
56041;SDS011;48756;41.374;2.066;2023-02-01T02:59:09;5.95;;;5.35;;
56041;SDS011;48756;41.374;2.066;2023-02-01T03:01:57;8.63;;;6.03;;
56041;SDS011;48756;41.374;2.066;2023-02-01T03:04:41;12.13;;;5.20;;
56041;SDS011;48756;41.374;2.066;2023-02-01T03:07:11;6.88;;;5.65;;
56041;SDS011;48756;41.374;2.066;2023-02-01T03:09:56;6.80;;;5.20;;
56041;SDS011;48756;41.374;2.066;2023-02-01T03:12:23;6.32;;;5.00;;
56041;SDS011;48756;41.374;2.066;2023-02-01T03:15:08;6.80;;;4.22;;
56041;SDS011;48756;41.374;2.066;2023-02-01T03:17:38;8.48;;;5.55;;
56041;SDS011;48756;41.374;2.066;2023-02-01T03:20:07;9.38;;;6.00;;
56041;SDS011;48756;41.374;2.066;2023-02-01T03:22:35;7.15;;;5.65;;
56041;SDS011;48756;41.374;2.066;2023-02-01T03:25:05;8.05;;;5.13;;
56041;SDS011;48756;41.374;2.066;2023-02-01T03:27:40;8.98;;;4.90;;
56041;SDS011;48756;41.374;2.066;2023-02-01T03:30:17;7.32;;;4.45;;
56041;SDS011;48756;41.374;2.066;2023-02-01T03:32:59;7.55;;;4.65;;
56041;SDS011;48756;41.374;2.066;2023-02-01T03:35:29;8.18;;;5.18;;
56041;SDS011;48756;41.374;2.066;2023-02-01T03:38:04;9.77;;;4.20;;
56041;SDS011;48756;41.374;2.066;2023-02-01T03:40:38;5.88;;;4.53;;
56041;SDS011;48756;41.374;2.066;2023-02-01T03:43:06;7.40;;;4.07;;
56041;SDS011;48756;41.374;2.066;2023-02-01T03:45:38;5.25;;;4.20;;
56041;SDS011;48756;41.374;2.066;2023-02-01T03:48:09;6.00;;;4.68;;
56041;SDS011;48756;41.374;2.066;2023-02-01T03:50:39;6.93;;;5.07;;
56041;SDS011;48756;41.374;2.066;2023-02-01T03:53:12;6.38;;;4.50;;
56041;SDS011;48756;41.374;2.066;2023-02-01T03:55:41;5.10;;;4.50;;
56041;SDS011;48756;41.374;2.066;2023-02-01T03:58:09;6.68;;;4.85;;
56041;SDS011;48756;41.374;2.066;2023-02-01T04:00:39;5.75;;;3.45;;
56041;SDS011;48756;41.374;2.066;2023-02-01T04:05:31;9.55;;;3.90;;
56041;SDS011;48756;41.374;2.066;2023-02-01T04:07:57;7.68;;;4.68;;
56041;SDS011;48756;41.374;2.066;2023-02-01T04:12:49;8.00;;;4.53;;
56041;SDS011;48756;41.374;2.066;2023-02-01T04:15:14;7.70;;;5.47;;
56041;SDS011;48756;41.374;2.066;2023-02-01T04:17:40;7.57;;;5.27;;
56041;SDS011;48756;41.374;2.066;2023-02-01T04:20:06;6.13;;;4.80;;
56041;SDS011;48756;41.374;2.066;2023-02-01T04:22:32;5.38;;;3.85;;
56041;SDS011;48756;41.374;2.066;2023-02-01T04:24:57;9.45;;;5.30;;
56041;SDS011;48756;41.374;2.066;2023-02-01T04:27:23;5.17;;;3.93;;
56041;SDS011;48756;41.374;2.066;2023-02-01T04:29:48;6.43;;;3.70;;
56041;SDS011;48756;41.374;2.066;2023-02-01T04:32:17;9.65;;;4.45;;
56041;SDS011;48756;41.374;2.066;2023-02-01T04:34:44;7.88;;;4.82;;
56041;SDS011;48756;41.374;2.066;2023-02-01T04:37:10;7.30;;;4.93;;
56041;SDS011;48756;41.374;2.066;2023-02-01T04:39:36;7.07;;;4.93;;
56041;SDS011;48756;41.374;2.066;2023-02-01T04:42:01;7.60;;;4.43;;
56041;SDS011;48756;41.374;2.066;2023-02-01T04:44:27;6.57;;;4.30;;
56041;SDS011;48756;41.374;2.066;2023-02-01T04:46:52;7.67;;;3.97;;
56041;SDS011;48756;41.374;2.066;2023-02-01T04:49:18;6.70;;;5.00;;
56041;SDS011;48756;41.374;2.066;2023-02-01T04:51:46;4.70;;;3.25;;
56041;SDS011;48756;41.374;2.066;2023-02-01T04:54:15;5.60;;;3.80;;
56041;SDS011;48756;41.374;2.066;2023-02-01T04:56:41;7.50;;;5.27;;
56041;SDS011;48756;41.374;2.066;2023-02-01T04:59:06;5.77;;;3.90;;
56041;SDS011;48756;41.374;2.066;2023-02-01T05:01:32;7.68;;;4.13;;
56041;SDS011;48756;41.374;2.066;2023-02-01T05:03:58;7.23;;;4.63;;
56041;SDS011;48756;41.374;2.066;2023-02-01T05:06:23;7.40;;;4.27;;
56041;SDS011;48756;41.374;2.066;2023-02-01T05:08:49;6.07;;;3.23;;
56041;SDS011;48756;41.374;2.066;2023-02-01T05:11:15;4.45;;;3.58;;
56041;SDS011;48756;41.374;2.066;2023-02-01T05:13:59;5.10;;;3.58;;
56041;SDS011;48756;41.374;2.066;2023-02-01T05:16:27;4.68;;;3.63;;
56041;SDS011;48756;41.374;2.066;2023-02-01T05:18:53;5.97;;;3.87;;
56041;SDS011;48756;41.374;2.066;2023-02-01T05:23:44;5.95;;;4.30;;
56041;SDS011;48756;41.374;2.066;2023-02-01T05:26:28;5.25;;;3.88;;
56041;SDS011;48756;41.374;2.066;2023-02-01T05:28:54;10.17;;;4.90;;
56041;SDS011;48756;41.374;2.066;2023-02-01T05:31:20;6.93;;;3.72;;
56041;SDS011;48756;41.374;2.066;2023-02-01T05:33:46;6.22;;;4.53;;
56041;SDS011;48756;41.374;2.066;2023-02-01T05:36:12;5.32;;;3.47;;
56041;SDS011;48756;41.374;2.066;2023-02-01T05:38:37;9.23;;;5.60;;
56041;SDS011;48756;41.374;2.066;2023-02-01T05:41:03;6.13;;;4.50;;
56041;SDS011;48756;41.374;2.066;2023-02-01T05:43:28;6.53;;;4.47;;
56041;SDS011;48756;41.374;2.066;2023-02-01T05:45:54;6.53;;;3.07;;
56041;SDS011;48756;41.374;2.066;2023-02-01T05:48:19;7.00;;;3.50;;
56041;SDS011;48756;41.374;2.066;2023-02-01T05:50:45;4.73;;;3.83;;
56041;SDS011;48756;41.374;2.066;2023-02-01T05:53:11;6.72;;;3.63;;
56041;SDS011;48756;41.374;2.066;2023-02-01T05:58:03;4.47;;;3.00;;
56041;SDS011;48756;41.374;2.066;2023-02-01T06:00:29;5.53;;;3.60;;
56041;SDS011;48756;41.374;2.066;2023-02-01T06:02:55;6.68;;;4.32;;
56041;SDS011;48756;41.374;2.066;2023-02-01T06:05:21;5.93;;;3.43;;
56041;SDS011;48756;41.374;2.066;2023-02-01T06:07:46;5.15;;;3.28;;
56041;SDS011;48756;41.374;2.066;2023-02-01T06:10:12;4.03;;;3.63;;
56041;SDS011;48756;41.374;2.066;2023-02-01T06:12:38;5.88;;;4.28;;
56041;SDS011;48756;41.374;2.066;2023-02-01T06:15:04;7.30;;;3.93;;
56041;SDS011;48756;41.374;2.066;2023-02-01T06:17:30;5.22;;;4.05;;
56041;SDS011;48756;41.374;2.066;2023-02-01T06:19:56;5.70;;;4.07;;
56041;SDS011;48756;41.374;2.066;2023-02-01T06:22:21;9.70;;;4.60;;
56041;SDS011;48756;41.374;2.066;2023-02-01T06:24:47;5.27;;;3.77;;
56041;SDS011;48756;41.374;2.066;2023-02-01T06:27:16;8.35;;;4.95;;
56041;SDS011;48756;41.374;2.066;2023-02-01T06:29:41;5.47;;;3.67;;
56041;SDS011;48756;41.374;2.066;2023-02-01T06:32:07;7.70;;;5.03;;
56041;SDS011;48756;41.374;2.066;2023-02-01T06:34:32;8.77;;;4.90;;
56041;SDS011;48756;41.374;2.066;2023-02-01T06:36:58;7.03;;;4.68;;
56041;SDS011;48756;41.374;2.066;2023-02-01T06:39:26;8.77;;;4.47;;
56041;SDS011;48756;41.374;2.066;2023-02-01T06:41:53;5.30;;;3.75;;
56041;SDS011;48756;41.374;2.066;2023-02-01T06:44:18;9.33;;;3.90;;
56041;SDS011;48756;41.374;2.066;2023-02-01T06:46:45;5.35;;;4.03;;
56041;SDS011;48756;41.374;2.066;2023-02-01T06:49:11;5.83;;;3.83;;
56041;SDS011;48756;41.374;2.066;2023-02-01T06:51:37;12.43;;;5.20;;
56041;SDS011;48756;41.374;2.066;2023-02-01T06:54:02;5.67;;;4.20;;
56041;SDS011;48756;41.374;2.066;2023-02-01T06:56:28;5.03;;;4.03;;
56041;SDS011;48756;41.374;2.066;2023-02-01T06:58:56;5.47;;;4.17;;
56041;SDS011;48756;41.374;2.066;2023-02-01T07:01:22;5.70;;;3.92;;
56041;SDS011;48756;41.374;2.066;2023-02-01T07:03:48;5.03;;;4.60;;
56041;SDS011;48756;41.374;2.066;2023-02-01T07:06:16;6.43;;;4.68;;
56041;SDS011;48756;41.374;2.066;2023-02-01T07:08:43;6.57;;;4.05;;
56041;SDS011;48756;41.374;2.066;2023-02-01T07:11:10;6.40;;;5.03;;
56041;SDS011;48756;41.374;2.066;2023-02-01T07:13:38;4.55;;;4.15;;
56041;SDS011;48756;41.374;2.066;2023-02-01T07:16:05;5.30;;;4.57;;
56041;SDS011;48756;41.374;2.066;2023-02-01T07:18:34;5.65;;;4.43;;
56041;SDS011;48756;41.374;2.066;2023-02-01T07:21:02;6.30;;;4.80;;
56041;SDS011;48756;41.374;2.066;2023-02-01T07:23:27;6.85;;;6.10;;
56041;SDS011;48756;41.374;2.066;2023-02-01T07:25:56;9.07;;;5.28;;
56041;SDS011;48756;41.374;2.066;2023-02-01T07:28:24;5.78;;;4.65;;
56041;SDS011;48756;41.374;2.066;2023-02-01T07:30:50;7.28;;;4.40;;
56041;SDS011;48756;41.374;2.066;2023-02-01T07:33:20;7.65;;;4.30;;
56041;SDS011;48756;41.374;2.066;2023-02-01T07:35:47;6.43;;;4.72;;
56041;SDS011;48756;41.374;2.066;2023-02-01T07:38:13;18.20;;;5.50;;
56041;SDS011;48756;41.374;2.066;2023-02-01T07:40:39;7.13;;;4.07;;
56041;SDS011;48756;41.374;2.066;2023-02-01T07:43:07;5.25;;;3.95;;
56041;SDS011;48756;41.374;2.066;2023-02-01T07:45:33;10.15;;;4.70;;
56041;SDS011;48756;41.374;2.066;2023-02-01T07:48:02;7.22;;;4.47;;
56041;SDS011;48756;41.374;2.066;2023-02-01T07:50:28;7.57;;;4.43;;
56041;SDS011;48756;41.374;2.066;2023-02-01T07:52:54;9.52;;;5.90;;
56041;SDS011;48756;41.374;2.066;2023-02-01T07:55:20;8.97;;;5.10;;
56041;SDS011;48756;41.374;2.066;2023-02-01T07:57:46;8.25;;;5.60;;
56041;SDS011;48756;41.374;2.066;2023-02-01T08:00:12;6.78;;;5.38;;
56041;SDS011;48756;41.374;2.066;2023-02-01T08:02:57;5.38;;;4.65;;
56041;SDS011;48756;41.374;2.066;2023-02-01T08:05:26;6.55;;;5.88;;
56041;SDS011;48756;41.374;2.066;2023-02-01T08:10:18;11.07;;;6.05;;
56041;SDS011;48756;41.374;2.066;2023-02-01T08:12:46;11.52;;;5.07;;
56041;SDS011;48756;41.374;2.066;2023-02-01T08:17:39;7.32;;;5.88;;
56041;SDS011;48756;41.374;2.066;2023-02-01T08:20:04;7.40;;;5.03;;
56041;SDS011;48756;41.374;2.066;2023-02-01T08:22:31;9.63;;;5.53;;
56041;SDS011;48756;41.374;2.066;2023-02-01T08:24:57;6.40;;;4.40;;
56041;SDS011;48756;41.374;2.066;2023-02-01T08:27:26;9.20;;;4.88;;
56041;SDS011;48756;41.374;2.066;2023-02-01T08:29:52;8.07;;;6.03;;
56041;SDS011;48756;41.374;2.066;2023-02-01T08:32:19;8.48;;;5.05;;
56041;SDS011;48756;41.374;2.066;2023-02-01T08:34:44;6.40;;;4.07;;
56041;SDS011;48756;41.374;2.066;2023-02-01T08:37:13;8.40;;;5.50;;
56041;SDS011;48756;41.374;2.066;2023-02-01T08:39:38;6.60;;;5.30;;
56041;SDS011;48756;41.374;2.066;2023-02-01T08:42:04;9.40;;;6.03;;
56041;SDS011;48756;41.374;2.066;2023-02-01T08:44:47;5.72;;;4.25;;
56041;SDS011;48756;41.374;2.066;2023-02-01T08:47:16;9.82;;;4.60;;
56041;SDS011;48756;41.374;2.066;2023-02-01T08:49:41;7.87;;;5.50;;
56041;SDS011;48756;41.374;2.066;2023-02-01T08:52:07;8.93;;;4.23;;
56041;SDS011;48756;41.374;2.066;2023-02-01T08:54:32;8.17;;;4.37;;
56041;SDS011;48756;41.374;2.066;2023-02-01T08:56:58;7.47;;;5.23;;
56041;SDS011;48756;41.374;2.066;2023-02-01T08:59:26;7.73;;;4.70;;
56041;SDS011;48756;41.374;2.066;2023-02-01T09:01:52;6.40;;;4.72;;
56041;SDS011;48756;41.374;2.066;2023-02-01T09:04:17;6.40;;;5.40;;
56041;SDS011;48756;41.374;2.066;2023-02-01T09:06:43;5.57;;;4.00;;
56041;SDS011;48756;41.374;2.066;2023-02-01T09:09:08;8.90;;;4.77;;
56041;SDS011;48756;41.374;2.066;2023-02-01T09:11:34;5.93;;;3.67;;
56041;SDS011;48756;41.374;2.066;2023-02-01T09:14:02;5.75;;;4.22;;
56041;SDS011;48756;41.374;2.066;2023-02-01T09:16:28;10.18;;;6.32;;
56041;SDS011;48756;41.374;2.066;2023-02-01T09:18:54;6.77;;;4.13;;
56041;SDS011;48756;41.374;2.066;2023-02-01T09:23:45;6.68;;;5.45;;
56041;SDS011;48756;41.374;2.066;2023-02-01T09:26:13;9.85;;;5.93;;
56041;SDS011;48756;41.374;2.066;2023-02-01T09:28:39;10.75;;;5.05;;
56041;SDS011;48756;41.374;2.066;2023-02-01T09:31:05;7.53;;;5.53;;
56041;SDS011;48756;41.374;2.066;2023-02-01T09:33:30;7.28;;;6.18;;
56041;SDS011;48756;41.374;2.066;2023-02-01T09:35:59;7.93;;;6.45;;
56041;SDS011;48756;41.374;2.066;2023-02-01T09:38:26;6.88;;;5.57;;
56041;SDS011;48756;41.374;2.066;2023-02-01T09:43:40;11.05;;;6.20;;
56041;SDS011;48756;41.374;2.066;2023-02-01T09:46:23;8.00;;;5.30;;
56041;SDS011;48756;41.374;2.066;2023-02-01T09:48:56;12.63;;;7.15;;
56041;SDS011;48756;41.374;2.066;2023-02-01T09:51:34;8.30;;;6.15;;
56041;SDS011;48756;41.374;2.066;2023-02-01T09:54:09;9.15;;;5.78;;
56041;SDS011;48756;41.374;2.066;2023-02-01T09:56:49;7.88;;;5.95;;
56041;SDS011;48756;41.374;2.066;2023-02-01T10:01:55;9.88;;;5.30;;
56041;SDS011;48756;41.374;2.066;2023-02-01T10:04:21;16.83;;;6.40;;
56041;SDS011;48756;41.374;2.066;2023-02-01T10:07:09;6.63;;;4.22;;
56041;SDS011;48756;41.374;2.066;2023-02-01T10:12:45;6.57;;;5.82;;
56041;SDS011;48756;41.374;2.066;2023-02-01T10:21:08;8.40;;;5.18;;
56041;SDS011;48756;41.374;2.066;2023-02-01T10:26:31;6.45;;;3.95;;
56041;SDS011;48756;41.374;2.066;2023-02-01T10:29:00;6.10;;;3.60;;
56041;SDS011;48756;41.374;2.066;2023-02-01T10:31:29;4.60;;;3.13;;
56041;SDS011;48756;41.374;2.066;2023-02-01T10:34:21;6.03;;;4.13;;
56041;SDS011;48756;41.374;2.066;2023-02-01T10:39:27;6.13;;;3.53;;
56041;SDS011;48756;41.374;2.066;2023-02-01T10:41:53;5.78;;;4.25;;
56041;SDS011;48756;41.374;2.066;2023-02-01T10:44:25;2.95;;;2.58;;
56041;SDS011;48756;41.374;2.066;2023-02-01T10:46:54;5.10;;;3.85;;
56041;SDS011;48756;41.374;2.066;2023-02-01T10:49:38;6.13;;;3.47;;
56041;SDS011;48756;41.374;2.066;2023-02-01T10:52:14;6.38;;;4.18;;
56041;SDS011;48756;41.374;2.066;2023-02-01T10:54:42;4.43;;;3.65;;
56041;SDS011;48756;41.374;2.066;2023-02-01T10:57:09;5.68;;;3.65;;
56041;SDS011;48756;41.374;2.066;2023-02-01T10:59:44;5.67;;;4.87;;
56041;SDS011;48756;41.374;2.066;2023-02-01T11:04:45;4.63;;;3.10;;
56041;SDS011;48756;41.374;2.066;2023-02-01T11:09:54;7.63;;;3.47;;
56041;SDS011;48756;41.374;2.066;2023-02-01T11:14:58;8.95;;;4.28;;
56041;SDS011;48756;41.374;2.066;2023-02-01T11:17:46;9.20;;;5.20;;
56041;SDS011;48756;41.374;2.066;2023-02-01T11:20:26;6.78;;;3.95;;
56041;SDS011;48756;41.374;2.066;2023-02-01T11:22:58;4.95;;;3.47;;
56041;SDS011;48756;41.374;2.066;2023-02-01T11:25:24;4.22;;;2.95;;
56041;SDS011;48756;41.374;2.066;2023-02-01T11:27:51;6.07;;;3.67;;
56041;SDS011;48756;41.374;2.066;2023-02-01T11:33:05;5.07;;;3.75;;
56041;SDS011;48756;41.374;2.066;2023-02-01T11:35:36;13.45;;;6.05;;
56041;SDS011;48756;41.374;2.066;2023-02-01T11:38:09;4.22;;;3.13;;
56041;SDS011;48756;41.374;2.066;2023-02-01T11:40:42;9.45;;;3.65;;
56041;SDS011;48756;41.374;2.066;2023-02-01T11:43:12;5.55;;;3.28;;
56041;SDS011;48756;41.374;2.066;2023-02-01T11:45:59;5.57;;;3.95;;
56041;SDS011;48756;41.374;2.066;2023-02-01T11:48:27;5.97;;;3.22;;
56041;SDS011;48756;41.374;2.066;2023-02-01T12:01:26;6.35;;;4.18;;
56041;SDS011;48756;41.374;2.066;2023-02-01T12:06:55;7.57;;;4.03;;
56041;SDS011;48756;41.374;2.066;2023-02-01T12:12:25;6.25;;;3.58;;
56041;SDS011;48756;41.374;2.066;2023-02-01T12:21:31;10.82;;;3.05;;
56041;SDS011;48756;41.374;2.066;2023-02-01T12:27:14;4.65;;;2.45;;
56041;SDS011;48756;41.374;2.066;2023-02-01T12:38:34;5.87;;;1.53;;
56041;SDS011;48756;41.374;2.066;2023-02-01T12:46:28;4.80;;;1.98;;
56041;SDS011;48756;41.374;2.066;2023-02-01T12:51:37;13.10;;;2.38;;
56041;SDS011;48756;41.374;2.066;2023-02-01T12:57:01;3.92;;;2.20;;
56041;SDS011;48756;41.374;2.066;2023-02-01T13:02:33;6.75;;;2.40;;
56041;SDS011;48756;41.374;2.066;2023-02-01T13:07:53;9.80;;;3.22;;
56041;SDS011;48756;41.374;2.066;2023-02-01T13:10:36;47.83;;;7.78;;
56041;SDS011;48756;41.374;2.066;2023-02-01T13:13:12;12.68;;;3.28;;
56041;SDS011;48756;41.374;2.066;2023-02-01T13:15:48;5.43;;;2.47;;
56041;SDS011;48756;41.374;2.066;2023-02-01T13:18:21;10.65;;;3.50;;
56041;SDS011;48756;41.374;2.066;2023-02-01T13:21:25;10.05;;;3.50;;
56041;SDS011;48756;41.374;2.066;2023-02-01T13:23:47;13.05;;;3.53;;
56041;SDS011;48756;41.374;2.066;2023-02-01T13:26:15;3.78;;;2.05;;
56041;SDS011;48756;41.374;2.066;2023-02-01T13:39:49;15.13;;;3.30;;
56041;SDS011;48756;41.374;2.066;2023-02-01T13:42:29;43.17;;;8.32;;
56041;SDS011;48756;41.374;2.066;2023-02-01T13:45:03;15.90;;;3.63;;
56041;SDS011;48756;41.374;2.066;2023-02-01T13:47:39;12.95;;;3.60;;
56041;SDS011;48756;41.374;2.066;2023-02-01T13:50:29;6.38;;;4.28;;
56041;SDS011;48756;41.374;2.066;2023-02-01T13:55:46;30.02;;;5.38;;
56041;SDS011;48756;41.374;2.066;2023-02-01T13:58:21;7.97;;;3.72;;
56041;SDS011;48756;41.374;2.066;2023-02-01T14:01:31;12.15;;;3.88;;
56041;SDS011;48756;41.374;2.066;2023-02-01T14:03:55;8.98;;;3.33;;
56041;SDS011;48756;41.374;2.066;2023-02-01T14:16:42;3.55;;;2.78;;
56041;SDS011;48756;41.374;2.066;2023-02-01T14:19:08;7.32;;;3.25;;
56041;SDS011;48756;41.374;2.066;2023-02-01T14:21:51;9.35;;;3.30;;
56041;SDS011;48756;41.374;2.066;2023-02-01T14:24:30;4.35;;;3.10;;
56041;SDS011;48756;41.374;2.066;2023-02-01T14:26:58;7.03;;;4.22;;
56041;SDS011;48756;41.374;2.066;2023-02-01T14:32:04;5.00;;;3.42;;
56041;SDS011;48756;41.374;2.066;2023-02-01T14:42:19;7.32;;;3.80;;
56041;SDS011;48756;41.374;2.066;2023-02-01T14:44:46;4.18;;;2.72;;
56041;SDS011;48756;41.374;2.066;2023-02-01T15:03:49;2.63;;;2.40;;
56041;SDS011;48756;41.374;2.066;2023-02-01T15:06:32;2.63;;;1.80;;
56041;SDS011;48756;41.374;2.066;2023-02-01T15:09:07;3.47;;;2.80;;
56041;SDS011;48756;41.374;2.066;2023-02-01T15:14:43;4.72;;;2.60;;
56041;SDS011;48756;41.374;2.066;2023-02-01T15:17:21;3.08;;;2.47;;
56041;SDS011;48756;41.374;2.066;2023-02-01T15:19:58;4.53;;;1.90;;
56041;SDS011;48756;41.374;2.066;2023-02-01T15:22:29;4.68;;;3.03;;
56041;SDS011;48756;41.374;2.066;2023-02-01T15:24:57;3.13;;;2.10;;
56041;SDS011;48756;41.374;2.066;2023-02-01T15:27:25;5.65;;;2.70;;
56041;SDS011;48756;41.374;2.066;2023-02-01T15:29:52;5.55;;;2.60;;
56041;SDS011;48756;41.374;2.066;2023-02-01T15:32:30;5.18;;;2.83;;
56041;SDS011;48756;41.374;2.066;2023-02-01T15:34:58;5.50;;;2.95;;
56041;SDS011;48756;41.374;2.066;2023-02-01T15:37:25;3.28;;;2.95;;
56041;SDS011;48756;41.374;2.066;2023-02-01T15:42:52;7.18;;;3.97;;
56041;SDS011;48756;41.374;2.066;2023-02-01T15:45:20;6.70;;;3.67;;
56041;SDS011;48756;41.374;2.066;2023-02-01T15:47:52;7.15;;;2.63;;
56041;SDS011;48756;41.374;2.066;2023-02-01T15:50:19;4.25;;;2.70;;
56041;SDS011;48756;41.374;2.066;2023-02-01T15:52:49;6.03;;;2.95;;
56041;SDS011;48756;41.374;2.066;2023-02-01T15:55:18;3.30;;;2.05;;
56041;SDS011;48756;41.374;2.066;2023-02-01T15:57:47;2.85;;;2.13;;
56041;SDS011;48756;41.374;2.066;2023-02-01T16:09:03;7.65;;;2.63;;
56041;SDS011;48756;41.374;2.066;2023-02-01T16:11:57;2.75;;;1.60;;
56041;SDS011;48756;41.374;2.066;2023-02-01T16:14:26;2.30;;;1.63;;
56041;SDS011;48756;41.374;2.066;2023-02-01T16:16:55;5.47;;;1.98;;
56041;SDS011;48756;41.374;2.066;2023-02-01T16:19:22;3.58;;;2.10;;
56041;SDS011;48756;41.374;2.066;2023-02-01T16:21:53;4.80;;;2.40;;
56041;SDS011;48756;41.374;2.066;2023-02-01T16:24:19;4.93;;;2.22;;
56041;SDS011;48756;41.374;2.066;2023-02-01T16:26:47;6.63;;;1.95;;
56041;SDS011;48756;41.374;2.066;2023-02-01T16:29:12;4.90;;;1.77;;
56041;SDS011;48756;41.374;2.066;2023-02-01T16:31:40;2.53;;;2.00;;
56041;SDS011;48756;41.374;2.066;2023-02-01T16:34:06;5.00;;;2.90;;
56041;SDS011;48756;41.374;2.066;2023-02-01T16:36:38;4.63;;;2.80;;
56041;SDS011;48756;41.374;2.066;2023-02-01T16:39:04;3.92;;;2.22;;
56041;SDS011;48756;41.374;2.066;2023-02-01T16:41:29;3.20;;;2.08;;
56041;SDS011;48756;41.374;2.066;2023-02-01T16:43:55;4.72;;;2.65;;
56041;SDS011;48756;41.374;2.066;2023-02-01T16:46:21;7.53;;;2.35;;
56041;SDS011;48756;41.374;2.066;2023-02-01T16:48:54;11.52;;;2.53;;
56041;SDS011;48756;41.374;2.066;2023-02-01T16:51:30;6.03;;;2.92;;
56041;SDS011;48756;41.374;2.066;2023-02-01T16:53:58;4.82;;;2.28;;
56041;SDS011;48756;41.374;2.066;2023-02-01T16:56:31;5.80;;;2.97;;
56041;SDS011;48756;41.374;2.066;2023-02-01T16:58:59;4.28;;;2.72;;
56041;SDS011;48756;41.374;2.066;2023-02-01T17:01:25;5.68;;;3.03;;
56041;SDS011;48756;41.374;2.066;2023-02-01T17:03:51;4.07;;;2.70;;
56041;SDS011;48756;41.374;2.066;2023-02-01T17:06:17;5.90;;;2.83;;
56041;SDS011;48756;41.374;2.066;2023-02-01T17:08:46;4.95;;;2.70;;
56041;SDS011;48756;41.374;2.066;2023-02-01T17:11:15;3.88;;;2.22;;
56041;SDS011;48756;41.374;2.066;2023-02-01T17:13:41;6.07;;;2.22;;
56041;SDS011;48756;41.374;2.066;2023-02-01T17:18:52;7.20;;;2.95;;
56041;SDS011;48756;41.374;2.066;2023-02-01T17:21:24;3.50;;;2.58;;
56041;SDS011;48756;41.374;2.066;2023-02-01T17:23:53;4.40;;;2.15;;
56041;SDS011;48756;41.374;2.066;2023-02-01T17:26:19;3.78;;;2.80;;
56041;SDS011;48756;41.374;2.066;2023-02-01T17:28:45;3.13;;;2.30;;
56041;SDS011;48756;41.374;2.066;2023-02-01T17:31:17;4.90;;;2.97;;
56041;SDS011;48756;41.374;2.066;2023-02-01T17:33:42;4.97;;;3.03;;
56041;SDS011;48756;41.374;2.066;2023-02-01T17:36:13;4.90;;;2.28;;
56041;SDS011;48756;41.374;2.066;2023-02-01T17:38:41;4.55;;;3.30;;
56041;SDS011;48756;41.374;2.066;2023-02-01T17:41:08;6.00;;;3.00;;
56041;SDS011;48756;41.374;2.066;2023-02-01T17:43:35;12.75;;;3.75;;
56041;SDS011;48756;41.374;2.066;2023-02-01T17:46:14;5.22;;;3.17;;
56041;SDS011;48756;41.374;2.066;2023-02-01T17:48:42;5.50;;;3.40;;
56041;SDS011;48756;41.374;2.066;2023-02-01T17:53:41;4.65;;;4.18;;
56041;SDS011;48756;41.374;2.066;2023-02-01T17:56:17;6.15;;;3.38;;
56041;SDS011;48756;41.374;2.066;2023-02-01T17:58:44;5.80;;;3.63;;
56041;SDS011;48756;41.374;2.066;2023-02-01T18:01:14;4.38;;;3.10;;
56041;SDS011;48756;41.374;2.066;2023-02-01T18:03:42;4.15;;;2.92;;
56041;SDS011;48756;41.374;2.066;2023-02-01T18:06:14;6.20;;;3.20;;
56041;SDS011;48756;41.374;2.066;2023-02-01T18:08:42;6.50;;;4.03;;
56041;SDS011;48756;41.374;2.066;2023-02-01T18:11:21;7.97;;;3.80;;